< < Back
Terminal Aerodrome Forecast


Current Version              Previous Versions:   1  2  3  4  5  6  7  8  9  

Terminal Aerodrome Forecast

888
FTUS42 KILM 251121
TAFILM
TAF
KILM 251121Z 2512/2612 26006KT P6SM SKC
     FM251900 19010G17KT P6SM SCT050
     FM260000 21004KT P6SM SKC=

Latest METAR

465
SAUS70 KWBC 261000 RRE
MTRILM
METAR KILM 260953Z AUTO 00000KT 9SM FEW085 19/18 A3020 RMK AO2 SLP226
T01890178


USA.gov is the U.S. government's official web portal to all federal, state and local government web resources and services.